createdAt,value
2022-11-15T00:02:13.225Z,24.30
2022-11-15T00:05:17.765Z,24.42
2022-11-15T00:08:23.570Z,23.50
2022-11-15T00:11:30.480Z,24.02
2022-11-15T00:14:33.860Z,24.95
2022-11-15T00:17:37.274Z,22.87
2022-11-15T00:20:42.816Z,22.40
2022-11-15T00:23:47.226Z,21.38
2022-11-15T00:26:50.474Z,23.08
2022-11-15T00:29:54.248Z,22.57
2022-11-15T00:32:58.515Z,20.70
2022-11-15T00:42:11.515Z,23.00
2022-11-15T00:45:14.782Z,20.98
2022-11-15T00:48:18.012Z,21.48
2022-11-15T00:51:21.472Z,23.13
2022-11-15T00:54:26.003Z,23.87
2022-11-15T00:57:29.257Z,23.92
2022-11-15T01:00:32.567Z,22.73
2022-11-15T01:03:35.789Z,23.57
2022-11-15T01:06:38.981Z,25.17
2022-11-15T01:09:43.522Z,23.77
2022-11-15T01:12:46.752Z,23.20
2022-11-15T01:15:49.927Z,25.40
2022-11-15T01:18:53.055Z,21.77
2022-11-15T01:21:56.437Z,21.67
2022-11-15T01:25:01.318Z,22.50
2022-11-15T01:28:04.767Z,23.92
2022-11-15T01:31:13.677Z,22.65
2022-11-15T01:34:17.125Z,20.55
2022-11-15T01:37:20.381Z,23.80
2022-11-15T01:40:25.201Z,20.50
2022-11-15T01:43:34.189Z,23.40
2022-11-15T01:46:39.852Z,21.60
2022-11-15T01:49:57.931Z,22.63
2022-11-15T01:53:02.159Z,22.55
2022-11-15T01:59:14.464Z,21.20
2022-11-15T02:02:18.187Z,21.73
2022-11-15T02:05:21.921Z,20.80
2022-11-15T02:08:25.260Z,20.92
2022-11-15T02:11:30.770Z,21.30
2022-11-15T02:14:35.190Z,21.92
2022-11-15T02:18:05.236Z,20.40
2022-11-15T02:21:23.037Z,22.15
2022-11-15T02:25:03.281Z,19.50
2022-11-15T02:28:47.727Z,20.15
2022-11-15T02:32:04.437Z,20.83
2022-11-15T02:35:20.528Z,20.77
2022-11-15T02:38:38.693Z,21.20
2022-11-15T02:41:50.075Z,20.58
2022-11-15T02:44:56.680Z,21.23
2022-11-15T02:48:05.905Z,21.63
2022-11-15T02:51:10.298Z,19.52
2022-11-15T02:54:17.562Z,20.98
2022-11-15T02:57:34.489Z,20.98
2022-11-15T03:00:45.615Z,22.05
2022-11-15T03:04:04.629Z,21.92
2022-11-15T03:07:18.079Z,21.77
2022-11-15T03:10:28.650Z,23.30
2022-11-15T03:13:41.615Z,20.67
2022-11-15T03:16:52.865Z,20.92
2022-11-15T03:20:02.044Z,22.92
2022-11-15T03:23:10.922Z,21.40
2022-11-15T03:26:18.800Z,22.13
2022-11-15T03:29:31.658Z,21.83
2022-11-15T03:32:42.225Z,23.33
2022-11-15T03:35:49.909Z,21.95
2022-11-15T03:38:58.956Z,21.33
2022-11-15T03:42:17.317Z,22.00
2022-11-15T03:45:28.196Z,21.73
2022-11-15T03:48:39.227Z,22.00
2022-11-15T03:51:44.009Z,22.52
2022-11-15T03:54:56.135Z,20.52
2022-11-15T03:58:02.995Z,20.63
2022-11-15T04:01:06.313Z,22.10
2022-11-15T04:04:10.585Z,21.43
2022-11-15T04:10:21.074Z,21.02
2022-11-15T04:13:24.349Z,21.48
2022-11-15T04:16:27.401Z,21.33
2022-11-15T04:19:48.373Z,20.33
2022-11-15T04:23:09.421Z,19.83
2022-11-15T04:26:18.432Z,19.02
2022-11-15T04:29:36.737Z,21.02
2022-11-15T04:32:40.404Z,20.45
2022-11-15T04:36:05.490Z,20.67
2022-11-15T04:39:09.965Z,21.38
2022-11-15T04:42:13.392Z,21.15
2022-11-15T04:45:17.070Z,22.00
2022-11-15T04:48:21.249Z,22.77
2022-11-15T04:54:29.262Z,23.95
2022-11-15T04:57:32.511Z,23.50
2022-11-15T05:00:35.961Z,23.25
2022-11-15T05:03:57.270Z,22.52
2022-11-15T05:07:00.418Z,24.73
2022-11-15T05:10:05.674Z,23.67
2022-11-15T05:13:09.624Z,24.98
2022-11-15T05:16:12.780Z,24.98
2022-11-15T05:19:16.369Z,24.90
2022-11-15T05:22:19.825Z,27.13
2022-11-15T05:25:24.924Z,27.73
2022-11-15T05:28:28.265Z,26.25
2022-11-15T05:31:31.472Z,28.53
2022-11-15T05:34:35.874Z,27.52
2022-11-15T05:37:39.066Z,24.75
2022-11-15T05:40:43.985Z,25.13
2022-11-15T05:43:49.780Z,24.08
2022-11-15T05:47:00.979Z,24.63
2022-11-15T05:50:05.221Z,23.98
2022-11-15T05:53:09.650Z,26.48
2022-11-15T05:56:15.139Z,25.33
2022-11-15T05:59:20.366Z,22.77
2022-11-15T06:02:24.367Z,24.48
2022-11-15T06:05:28.399Z,26.80
2022-11-15T06:08:31.801Z,26.38
2022-11-15T06:11:36.593Z,25.48
2022-11-15T06:14:40.549Z,25.65
2022-11-15T06:17:46.419Z,26.08
2022-11-15T06:20:49.800Z,24.23
2022-11-15T06:23:53.108Z,27.60
2022-11-15T06:26:58.570Z,26.53
2022-11-15T06:30:02.789Z,28.05
2022-11-15T06:36:18.345Z,29.98
2022-11-15T06:39:21.689Z,32.70
2022-11-15T06:42:26.495Z,32.30
2022-11-15T06:45:29.876Z,33.08
2022-11-15T06:48:34.832Z,33.90
2022-11-15T06:51:37.907Z,34.25
2022-11-15T06:54:41.088Z,33.08
2022-11-15T06:57:52.399Z,34.33
2022-11-15T07:00:56.342Z,35.60
2022-11-15T07:03:59.674Z,32.45
2022-11-15T07:07:03.520Z,32.70
2022-11-15T07:10:08.709Z,32.85
2022-11-15T07:13:13.167Z,31.13
2022-11-15T07:16:16.455Z,33.03
2022-11-15T07:19:19.575Z,29.33
2022-11-15T07:22:22.774Z,30.27
2022-11-15T07:25:26.463Z,29.40
2022-11-15T07:28:31.279Z,31.98
2022-11-15T07:31:35.077Z,33.38
2022-11-15T07:34:38.551Z,32.50
2022-11-15T07:37:41.811Z,32.37
2022-11-15T07:40:44.909Z,32.55
2022-11-15T07:43:49.473Z,34.03
2022-11-15T07:46:52.588Z,31.50
2022-11-15T07:49:55.698Z,31.95
2022-11-15T07:53:01.171Z,32.53
2022-11-15T07:56:04.542Z,32.25
2022-11-15T07:59:09.358Z,30.97
2022-11-15T08:02:12.751Z,33.85
2022-11-15T08:05:16.583Z,31.00
2022-11-15T08:08:20.587Z,29.40
2022-11-15T08:11:23.983Z,31.75
2022-11-15T08:14:29.151Z,31.67
2022-11-15T08:17:34.842Z,32.90
2022-11-15T08:20:38.415Z,31.70
2022-11-15T08:23:41.507Z,31.08
2022-11-15T08:26:45.491Z,29.45
2022-11-15T08:29:55.554Z,31.95
2022-11-15T08:33:02.540Z,31.80
2022-11-15T08:36:06.575Z,27.77
2022-11-15T08:39:13.336Z,30.35
2022-11-15T08:42:20.092Z,29.40
2022-11-15T08:45:25.033Z,29.35
2022-11-15T08:48:28.471Z,28.48
2022-11-15T08:51:31.887Z,30.20
2022-11-15T08:54:35.155Z,31.67
2022-11-15T08:57:38.408Z,30.57
2022-11-15T09:00:43.672Z,29.50
2022-11-15T09:03:47.068Z,30.55
2022-11-15T09:06:50.326Z,27.73
2022-11-15T09:09:53.603Z,27.63
2022-11-15T09:12:58.792Z,28.53
2022-11-15T09:16:04.200Z,28.55
2022-11-15T09:19:11.937Z,28.27
2022-11-15T09:22:15.588Z,28.55
2022-11-15T09:25:19.275Z,28.40
2022-11-15T09:28:22.844Z,31.27
2022-11-15T09:31:27.735Z,29.35
2022-11-15T09:34:30.921Z,27.33
2022-11-15T09:37:34.503Z,29.38
2022-11-15T09:40:40.029Z,29.40
2022-11-15T09:43:57.604Z,29.20
2022-11-15T09:47:26.384Z,27.27
2022-11-15T09:50:42.656Z,29.50
2022-11-15T09:54:30.880Z,27.45
2022-11-15T09:57:31.959Z,28.70
2022-11-15T10:00:48.605Z,26.25
2022-11-15T10:03:53.953Z,26.70
2022-11-15T10:07:07.837Z,27.73
2022-11-15T10:10:19.587Z,25.33
2022-11-15T10:13:28.793Z,25.35
2022-11-15T10:17:34.865Z,26.35
2022-11-15T10:21:09.704Z,26.80
2022-11-15T10:24:14.718Z,26.02
2022-11-15T10:27:20.918Z,27.08
2022-11-15T10:30:30.729Z,28.75
2022-11-15T10:33:36.651Z,28.48
2022-11-15T10:36:50.343Z,27.05
2022-11-15T10:40:07.325Z,23.85
2022-11-15T10:43:19.195Z,27.05
2022-11-15T10:46:46.732Z,23.83
2022-11-15T10:50:05.576Z,24.27
2022-11-15T10:53:25.519Z,23.98
2022-11-15T10:56:30.205Z,24.77
2022-11-15T10:59:39.391Z,23.95
2022-11-15T11:02:59.875Z,24.10
2022-11-15T11:06:10.361Z,25.15
2022-11-15T11:09:31.557Z,24.17
2022-11-15T11:12:36.024Z,22.52
2022-11-15T11:15:39.925Z,23.55
2022-11-15T11:18:58.744Z,22.33
2022-11-15T11:22:17.097Z,23.30
2022-11-15T11:25:36.864Z,24.77
2022-11-15T11:28:54.614Z,24.08
2022-11-15T11:32:11.108Z,25.98
2022-11-15T11:35:22.466Z,22.60
2022-11-15T11:39:00.390Z,24.63
2022-11-15T11:42:18.937Z,24.60
2022-11-15T11:45:47.356Z,22.17
2022-11-15T11:48:58.644Z,21.27
2022-11-15T11:52:13.082Z,22.67
2022-11-15T11:58:35.313Z,22.55
2022-11-15T12:01:44.795Z,24.20
2022-11-15T12:04:54.635Z,23.08
2022-11-15T12:08:11.345Z,22.80
2022-11-15T12:11:22.562Z,24.02
2022-11-15T12:14:38.503Z,23.50
2022-11-15T12:17:43.954Z,23.67
2022-11-15T12:21:01.678Z,22.40
2022-11-15T12:24:10.325Z,20.70
2022-11-15T12:27:26.521Z,18.42
2022-11-15T12:30:47.294Z,17.30
2022-11-15T12:33:52.133Z,21.10
2022-11-15T12:36:55.571Z,21.95
2022-11-15T12:40:33.394Z,21.00
2022-11-15T12:43:43.467Z,21.70
2022-11-15T12:47:24.781Z,19.98
2022-11-15T12:50:59.087Z,21.35
2022-11-15T12:54:23.157Z,21.80
2022-11-15T12:57:37.693Z,22.95
2022-11-15T13:04:25.717Z,22.60
2022-11-15T13:07:59.038Z,22.02
2022-11-15T13:11:49.603Z,25.60
2022-11-15T13:14:57.179Z,23.70
2022-11-15T13:18:02.616Z,23.63
2022-11-15T13:21:45.444Z,22.27
2022-11-15T13:24:48.826Z,22.17
2022-11-15T13:27:55.942Z,22.48
2022-11-15T13:31:02.284Z,22.45
2022-11-15T13:34:49.942Z,23.25
2022-11-15T13:37:49.260Z,23.45
2022-11-15T13:40:56.862Z,24.20
2022-11-15T13:44:27.665Z,25.13
2022-11-15T13:47:32.593Z,23.02
2022-11-15T13:50:41.077Z,23.45
2022-11-15T13:53:56.390Z,23.73
2022-11-15T13:57:05.903Z,25.00
2022-11-15T14:00:33.271Z,26.17
2022-11-15T14:03:48.545Z,25.23
2022-11-15T14:06:55.488Z,24.92
2022-11-15T14:09:58.982Z,24.17
2022-11-15T14:13:07.354Z,23.75
2022-11-15T14:16:23.642Z,23.38
2022-11-15T14:19:42.927Z,24.20
2022-11-15T14:22:55.844Z,25.02
2022-11-15T14:26:07.481Z,24.38
2022-11-15T14:29:29.167Z,24.20
2022-11-15T14:32:45.832Z,24.75
2022-11-15T14:35:50.298Z,23.17
2022-11-15T14:42:05.956Z,21.85
2022-11-15T14:45:19.039Z,20.90
2022-11-15T14:48:24.062Z,19.92
2022-11-15T14:51:27.926Z,18.88
2022-11-15T14:54:31.704Z,20.38
2022-11-15T14:57:36.364Z,19.88
2022-11-15T15:00:42.800Z,19.75
2022-11-15T15:03:47.978Z,16.73
2022-11-15T15:06:51.304Z,20.20
2022-11-15T15:10:02.741Z,18.40
2022-11-15T15:13:21.567Z,18.08
2022-11-15T15:16:25.585Z,18.33
2022-11-15T15:19:30.207Z,17.70
2022-11-15T15:22:33.850Z,18.08
2022-11-15T15:25:37.447Z,17.25
2022-11-15T15:28:41.166Z,18.25
2022-11-15T15:31:45.970Z,15.73
2022-11-15T15:34:51.696Z,15.13
2022-11-15T15:37:56.970Z,17.17
2022-11-15T15:41:02.850Z,16.48
2022-11-15T15:44:06.056Z,15.50
2022-11-15T15:47:14.469Z,14.20
2022-11-15T15:50:26.910Z,13.85
2022-11-15T15:53:31.589Z,12.50
2022-11-15T15:56:35.105Z,13.88
2022-11-15T15:59:38.464Z,11.87
2022-11-15T16:02:42.709Z,11.20
2022-11-15T16:09:13.731Z,11.68
2022-11-15T16:12:16.218Z,11.30
2022-11-15T16:15:20.537Z,11.00
2022-11-15T16:21:30.396Z,11.60
2022-11-15T16:24:34.487Z,12.85
2022-11-15T16:27:46.252Z,12.88
2022-11-15T16:30:57.815Z,11.90
2022-11-15T16:34:12.199Z,12.43
2022-11-15T16:41:00.779Z,12.45
2022-11-15T16:44:04.732Z,12.35
2022-11-15T16:47:20.478Z,11.60
2022-11-15T16:50:27.590Z,11.15
2022-11-15T16:53:32.672Z,10.30
2022-11-15T16:56:37.304Z,9.50
2022-11-15T16:59:42.793Z,9.27
2022-11-15T17:02:50.393Z,8.27
2022-11-15T17:05:59.397Z,8.70
2022-11-15T17:09:06.980Z,8.60
2022-11-15T17:12:12.054Z,9.10
2022-11-15T17:15:16.783Z,9.43
2022-11-15T17:18:22.029Z,9.20
2022-11-15T17:21:35.613Z,8.48
2022-11-15T17:27:48.966Z,8.70
2022-11-15T17:30:52.211Z,7.80
2022-11-15T17:33:55.603Z,7.73
2022-11-15T17:36:58.786Z,7.97
2022-11-15T17:40:03.622Z,8.05
2022-11-15T17:43:10.626Z,7.97
2022-11-15T17:46:21.405Z,9.00
2022-11-15T17:49:25.514Z,7.53
2022-11-15T17:52:33.469Z,8.05
2022-11-15T17:55:45.730Z,7.90
2022-11-15T17:58:51.650Z,7.82
2022-11-15T18:05:19.111Z,7.57
2022-11-15T18:08:25.831Z,8.47
2022-11-15T18:11:34.781Z,8.63
2022-11-15T18:14:40.111Z,8.50
2022-11-15T18:17:43.863Z,8.35
2022-11-15T18:20:48.331Z,8.80
2022-11-15T18:23:58.935Z,8.55
2022-11-15T18:27:09.471Z,8.52
2022-11-15T18:30:18.170Z,9.48
2022-11-15T18:33:27.330Z,8.40
2022-11-15T18:36:34.205Z,8.95
2022-11-15T18:39:40.375Z,8.65
2022-11-15T18:42:53.399Z,9.13
2022-11-15T18:45:56.989Z,9.30
2022-11-15T18:49:03.393Z,9.20
2022-11-15T18:52:09.474Z,9.70
2022-11-15T18:55:16.011Z,9.00
2022-11-15T18:58:21.399Z,9.73
2022-11-15T19:01:29.711Z,9.57
2022-11-15T19:04:33.484Z,9.50
2022-11-15T19:07:38.286Z,10.40
2022-11-15T19:10:43.584Z,10.20
2022-11-15T19:13:49.886Z,9.98
2022-11-15T19:16:54.857Z,9.85
2022-11-15T19:19:58.555Z,10.63
2022-11-15T19:23:03.047Z,10.38
2022-11-15T19:26:13.300Z,9.65
2022-11-15T19:29:18.430Z,10.20
2022-11-15T19:32:22.272Z,9.45
2022-11-15T19:38:35.878Z,10.10
2022-11-15T19:41:50.834Z,10.38
2022-11-15T19:44:58.334Z,9.52
2022-11-15T19:48:02.185Z,9.60
2022-11-15T19:51:09.452Z,10.10
2022-11-15T19:54:13.676Z,10.15
2022-11-15T19:57:19.613Z,11.25
2022-11-15T20:00:24.720Z,9.60
2022-11-15T20:03:31.262Z,10.00
2022-11-15T20:06:39.351Z,10.23
2022-11-15T20:09:44.319Z,9.05
2022-11-15T20:12:50.302Z,9.75
2022-11-15T20:15:56.575Z,8.68
2022-11-15T20:19:04.167Z,8.55
2022-11-15T20:22:08.240Z,8.90
2022-11-15T20:25:12.546Z,9.55
2022-11-15T20:28:20.132Z,9.00
2022-11-15T20:31:32.284Z,8.48
2022-11-15T20:34:35.612Z,8.30
2022-11-15T20:37:39.291Z,8.23
2022-11-15T20:40:45.846Z,6.75
2022-11-15T20:43:50.096Z,6.10
2022-11-15T20:46:56.042Z,5.20
2022-11-15T20:50:14.948Z,4.70
2022-11-15T20:53:28.039Z,4.47
2022-11-15T20:56:34.845Z,4.55
2022-11-15T21:02:43.838Z,4.85
2022-11-15T21:05:47.532Z,4.70
2022-11-15T21:09:09.824Z,6.00
2022-11-15T21:12:14.928Z,4.72
2022-11-15T21:15:18.883Z,5.43
2022-11-15T21:18:24.410Z,5.97
2022-11-15T21:21:27.700Z,5.55
2022-11-15T21:24:35.635Z,5.10
2022-11-15T21:27:39.595Z,3.50
2022-11-15T21:30:44.067Z,1.95
2022-11-15T21:33:49.598Z,1.30
2022-11-15T21:36:55.683Z,1.20
2022-11-15T21:39:59.972Z,1.40
2022-11-15T21:46:11.203Z,0.82
2022-11-15T21:49:17.370Z,1.02
2022-11-15T21:52:26.094Z,1.00
2022-11-15T21:55:33.527Z,0.73
2022-11-15T21:58:49.158Z,0.95
2022-11-15T22:02:12.295Z,1.10
2022-11-15T22:05:17.883Z,1.02
2022-11-15T22:08:22.894Z,0.60
2022-11-15T22:11:26.467Z,0.70
2022-11-15T22:14:29.854Z,0.98
2022-11-15T22:17:46.939Z,0.97
2022-11-15T22:21:01.139Z,0.93
2022-11-15T22:24:06.754Z,1.23
2022-11-15T22:27:12.589Z,1.20
2022-11-15T22:30:16.939Z,0.85
2022-11-15T22:33:22.965Z,0.60
2022-11-15T22:36:35.981Z,0.60
2022-11-15T22:39:50.468Z,0.70
2022-11-15T22:42:53.798Z,0.57
2022-11-15T22:45:59.166Z,0.70
2022-11-15T22:49:03.550Z,0.90
2022-11-15T22:52:08.956Z,0.80
2022-11-15T22:55:13.047Z,0.80
2022-11-15T22:58:16.825Z,1.00
2022-11-15T23:01:23.935Z,0.95
2022-11-15T23:04:28.211Z,0.82
2022-11-15T23:07:33.806Z,0.70
2022-11-15T23:10:57.449Z,0.73
2022-11-15T23:14:06.335Z,0.50
2022-11-15T23:17:10.586Z,0.40
2022-11-15T23:23:38.974Z,0.30
2022-11-15T23:26:45.667Z,0.40
2022-11-15T23:30:07.810Z,0.40
2022-11-15T23:33:33.717Z,0.52
2022-11-15T23:36:42.497Z,0.30
2022-11-15T23:39:50.320Z,0.43
2022-11-15T23:42:54.199Z,0.50
2022-11-15T23:46:00.753Z,0.50
2022-11-15T23:49:05.745Z,0.40
2022-11-15T23:52:09.635Z,0.65
2022-11-15T23:55:14.940Z,0.30
2022-11-15T23:58:18.240Z,0.30
